createdAt,value
2022-10-11T00:02:20.338Z,27.15
2022-10-11T00:05:22.429Z,24.12
2022-10-11T00:08:23.983Z,33.97
2022-10-11T00:11:26.054Z,21.05
2022-10-11T00:14:28.263Z,19.35
2022-10-11T00:17:29.891Z,16.85
2022-10-11T00:20:31.975Z,18.10
2022-10-11T00:23:33.892Z,16.62
2022-10-11T00:26:35.576Z,14.57
2022-10-11T00:29:38.032Z,15.85
2022-10-11T00:32:40.157Z,16.05
2022-10-11T00:35:42.432Z,14.82
2022-10-11T00:38:45.609Z,20.45
2022-10-11T00:41:49.223Z,16.85
2022-10-11T00:44:51.635Z,20.85
2022-10-11T00:48:01.138Z,20.80
2022-10-11T00:51:07.972Z,22.13
2022-10-11T00:54:15.618Z,18.92
2022-10-11T00:57:21.801Z,15.73
2022-10-11T01:00:23.421Z,16.67
2022-10-11T01:03:26.808Z,16.67
2022-10-11T01:06:28.764Z,14.77
2022-10-11T01:09:31.333Z,15.98
2022-10-11T01:12:33.498Z,19.67
2022-10-11T01:15:52.374Z,26.95
2022-10-11T01:19:17.702Z,21.25
2022-10-11T01:22:22.529Z,20.85
2022-10-11T01:25:33.240Z,19.87
2022-10-11T01:29:11.135Z,15.95
2022-10-11T01:32:34.003Z,19.02
2022-10-11T01:35:46.996Z,14.73
2022-10-11T01:38:58.325Z,22.58
2022-10-11T01:42:03.536Z,15.95
2022-10-11T01:45:09.812Z,18.40
2022-10-11T01:48:14.263Z,19.73
2022-10-11T01:51:16.328Z,21.77
2022-10-11T01:55:08.223Z,16.33
2022-10-11T02:01:56.949Z,26.37
2022-10-11T02:05:18.320Z,25.42
2022-10-11T02:08:38.877Z,35.40
2022-10-11T02:11:41.636Z,33.35
2022-10-11T02:14:47.831Z,30.67
2022-10-11T02:17:54.516Z,25.77
2022-10-11T02:21:01.240Z,29.30
2022-10-11T02:24:11.688Z,19.90
2022-10-11T02:27:15.234Z,23.98
2022-10-11T02:30:17.390Z,32.58
2022-10-11T02:33:26.545Z,33.28
2022-10-11T02:36:43.771Z,26.17
2022-10-11T02:40:04.159Z,22.73
2022-10-11T02:43:13.456Z,19.12
2022-10-11T02:46:17.783Z,15.85
2022-10-11T02:49:21.391Z,17.80
2022-10-11T02:52:23.307Z,20.98
2022-10-11T02:55:24.919Z,20.92
2022-10-11T02:58:26.920Z,17.00
2022-10-11T03:01:28.611Z,15.20
2022-10-11T03:04:30.563Z,21.20
2022-10-11T03:07:32.152Z,17.35
2022-10-11T03:10:35.177Z,21.15
2022-10-11T03:13:36.806Z,22.45
2022-10-11T03:16:38.823Z,23.95
2022-10-11T03:19:40.441Z,30.27
2022-10-11T03:22:42.067Z,17.35
2022-10-11T03:25:46.264Z,23.20
2022-10-11T03:28:48.062Z,17.12
2022-10-11T03:31:49.647Z,14.10
2022-10-11T03:34:51.649Z,14.98
2022-10-11T03:37:53.229Z,20.42
2022-10-11T03:40:55.258Z,21.30
2022-10-11T03:43:56.902Z,25.05
2022-10-11T03:46:58.892Z,22.35
2022-10-11T03:50:00.629Z,18.08
2022-10-11T03:53:02.781Z,19.87
2022-10-11T03:56:08.259Z,25.25
2022-10-11T03:59:11.065Z,21.98
2022-10-11T04:02:12.666Z,14.27
2022-10-11T04:05:14.720Z,20.55
2022-10-11T04:08:16.295Z,16.80
2022-10-11T04:11:18.267Z,18.23
2022-10-11T04:14:20.214Z,23.77
2022-10-11T04:17:22.136Z,16.40
2022-10-11T04:20:23.999Z,19.90
2022-10-11T04:23:25.683Z,18.80
2022-10-11T04:26:27.661Z,18.15
2022-10-11T04:29:32.537Z,19.70
2022-10-11T04:32:34.985Z,25.25
2022-10-11T04:35:36.662Z,18.12
2022-10-11T04:38:38.219Z,16.85
2022-10-11T04:41:39.811Z,23.62
2022-10-11T04:44:41.814Z,21.17
2022-10-11T04:47:43.360Z,23.58
2022-10-11T04:50:45.813Z,20.30
2022-10-11T04:53:48.746Z,20.83
2022-10-11T04:56:50.497Z,19.83
2022-10-11T04:59:52.297Z,19.77
2022-10-11T05:02:54.174Z,18.20
2022-10-11T05:05:56.156Z,26.25
2022-10-11T05:08:57.738Z,22.42
2022-10-11T05:11:59.295Z,18.73
2022-10-11T05:15:01.403Z,18.27
2022-10-11T05:18:03.026Z,21.98
2022-10-11T05:21:14.411Z,17.73
2022-10-11T05:24:16.048Z,21.37
2022-10-11T05:27:17.841Z,21.48
2022-10-11T05:30:19.621Z,16.73
2022-10-11T05:33:21.877Z,19.10
2022-10-11T05:36:23.452Z,30.33
2022-10-11T05:39:25.254Z,28.70
2022-10-11T05:42:26.833Z,26.52
2022-10-11T05:45:28.729Z,15.48
2022-10-11T05:48:30.411Z,18.17
2022-10-11T05:51:32.445Z,23.75
2022-10-11T05:54:34.070Z,21.00
2022-10-11T05:57:35.634Z,17.05
2022-10-11T06:00:38.448Z,15.38
2022-10-11T06:03:39.982Z,16.10
2022-10-11T06:06:41.563Z,18.25
2022-10-11T06:09:43.542Z,17.52
2022-10-11T06:12:45.194Z,18.23
2022-10-11T06:15:46.848Z,15.55
2022-10-11T06:18:48.767Z,14.18
2022-10-11T06:21:50.448Z,15.57
2022-10-11T06:24:52.123Z,16.80
2022-10-11T06:27:53.806Z,28.08
2022-10-11T06:30:56.696Z,15.88
2022-10-11T06:33:59.469Z,17.10
2022-10-11T06:37:01.334Z,18.48
2022-10-11T06:40:03.563Z,20.20
2022-10-11T06:43:05.345Z,27.50
2022-10-11T06:46:07.583Z,18.62
2022-10-11T06:49:09.666Z,20.42
2022-10-11T06:52:11.268Z,14.98
2022-10-11T06:55:13.300Z,17.40
2022-10-11T06:58:14.873Z,15.57
2022-10-11T07:01:19.190Z,19.37
2022-10-11T07:04:21.032Z,15.57
2022-10-11T07:07:22.681Z,14.05
2022-10-11T07:10:24.206Z,20.30
2022-10-11T07:13:26.135Z,17.55
2022-10-11T07:16:28.722Z,21.40
2022-10-11T07:19:30.429Z,12.70
2022-10-11T07:22:31.992Z,18.70
2022-10-11T07:25:33.937Z,21.17
2022-10-11T07:28:37.533Z,18.42
2022-10-11T07:31:41.341Z,17.95
2022-10-11T07:34:43.594Z,17.55
2022-10-11T07:37:45.196Z,22.52
2022-10-11T07:40:46.983Z,31.67
2022-10-11T07:43:50.405Z,21.35
2022-10-11T07:46:52.329Z,18.52
2022-10-11T07:49:54.360Z,14.95
2022-10-11T07:52:55.969Z,22.40
2022-10-11T07:56:02.758Z,27.10
2022-10-11T07:59:04.878Z,17.45
2022-10-11T08:02:06.638Z,15.90
2022-10-11T08:05:08.576Z,13.77
2022-10-11T08:08:10.496Z,17.33
2022-10-11T08:11:21.046Z,19.23
2022-10-11T08:14:22.670Z,22.27
2022-10-11T08:17:25.068Z,18.75
2022-10-11T08:20:27.101Z,14.60
2022-10-11T08:23:28.736Z,26.08
2022-10-11T08:26:31.278Z,12.48
2022-10-11T08:29:33.171Z,18.33
2022-10-11T08:32:35.029Z,24.45
2022-10-11T08:35:36.743Z,10.57
2022-10-11T08:38:39.177Z,19.58
2022-10-11T08:42:00.770Z,12.30
2022-10-11T08:45:14.041Z,23.77
2022-10-11T08:48:32.583Z,30.27
2022-10-11T08:51:50.947Z,16.35
2022-10-11T08:55:11.129Z,11.45
2022-10-11T08:58:16.257Z,20.30
2022-10-11T09:01:24.027Z,12.65
2022-10-11T09:04:26.077Z,13.15
2022-10-11T09:07:49.057Z,15.90
2022-10-11T09:10:59.691Z,11.32
2022-10-11T09:14:24.399Z,20.70
2022-10-11T09:18:13.735Z,17.50
2022-10-11T09:21:52.956Z,17.17
2022-10-11T09:25:16.368Z,17.25
2022-10-11T09:28:34.007Z,13.35
2022-10-11T09:31:36.061Z,9.57
2022-10-11T09:34:38.420Z,12.23
2022-10-11T09:37:59.461Z,20.12
2022-10-11T09:41:25.571Z,8.82
2022-10-11T09:44:29.742Z,15.05
2022-10-11T09:47:33.073Z,11.05
2022-10-11T09:50:35.208Z,20.40
2022-10-11T09:54:05.327Z,12.48
2022-10-11T09:57:22.106Z,10.38
2022-10-11T10:00:26.644Z,10.50
2022-10-11T10:03:31.388Z,18.10
2022-10-11T10:06:33.285Z,16.33
2022-10-11T10:09:34.905Z,11.38
2022-10-11T10:12:36.352Z,17.23
2022-10-11T10:15:38.378Z,11.23
2022-10-11T10:18:48.975Z,8.55
2022-10-11T10:21:54.111Z,10.70
2022-10-11T10:24:57.271Z,11.63
2022-10-11T10:28:01.927Z,10.63
2022-10-11T10:31:03.506Z,9.15
2022-10-11T10:34:14.444Z,19.95
2022-10-11T10:37:28.119Z,20.80
2022-10-11T10:40:40.530Z,14.07
2022-10-11T10:43:45.825Z,12.23
2022-10-11T10:46:56.405Z,17.65
2022-10-11T10:50:17.131Z,8.65
2022-10-11T10:53:24.540Z,21.50
2022-10-11T10:56:34.739Z,14.20
2022-10-11T10:59:36.222Z,6.57
2022-10-11T11:02:57.687Z,17.33
2022-10-11T11:06:57.585Z,8.55
2022-10-11T11:10:20.192Z,9.85
2022-10-11T11:13:39.326Z,10.50
2022-10-11T11:17:03.594Z,12.00
2022-10-11T11:20:25.038Z,13.18
2022-10-11T11:23:48.059Z,17.40
2022-10-11T11:27:04.370Z,11.12
2022-10-11T11:30:16.715Z,12.90
2022-10-11T11:33:36.117Z,12.45
2022-10-11T11:36:48.817Z,11.02
2022-10-11T11:39:55.909Z,11.18
2022-10-11T11:46:20.674Z,13.07
2022-10-11T11:49:35.753Z,14.50
2022-10-11T11:52:44.197Z,26.58
2022-10-11T11:55:54.281Z,10.65
2022-10-11T11:59:10.231Z,8.80
2022-10-11T12:02:46.188Z,11.52
2022-10-11T12:06:12.627Z,12.57
2022-10-11T12:09:17.142Z,10.23
2022-10-11T12:12:37.568Z,13.52
2022-10-11T12:15:39.625Z,10.20
2022-10-11T12:18:56.391Z,12.95
2022-10-11T12:22:37.891Z,11.87
2022-10-11T12:25:42.240Z,13.93
2022-10-11T12:28:43.804Z,225.85
2022-10-11T12:31:51.072Z,34.92
2022-10-11T12:35:31.191Z,11.00
2022-10-11T12:38:40.331Z,22.10
2022-10-11T12:41:48.833Z,12.45
2022-10-11T12:45:12.841Z,11.57
2022-10-11T12:48:41.595Z,17.17
2022-10-11T12:52:04.500Z,15.60
2022-10-11T12:55:31.051Z,15.43
2022-10-11T12:58:46.708Z,10.13
2022-10-11T13:01:52.469Z,108.68
2022-10-11T13:05:15.467Z,19.37
2022-10-11T13:08:43.414Z,14.35
2022-10-11T13:11:54.329Z,23.30
2022-10-11T13:15:05.607Z,14.93
2022-10-11T13:18:14.036Z,17.40
2022-10-11T13:21:26.963Z,41.22
2022-10-11T13:24:39.969Z,13.68
2022-10-11T13:27:42.388Z,18.77
2022-10-11T13:30:47.741Z,11.23
2022-10-11T13:33:55.016Z,14.20
2022-10-11T13:36:58.669Z,13.95
2022-10-11T13:40:00.667Z,10.77
2022-10-11T13:43:05.616Z,22.17
2022-10-11T13:46:17.515Z,24.12
2022-10-11T13:49:40.380Z,15.32
2022-10-11T13:53:01.957Z,20.75
2022-10-11T13:56:07.885Z,23.25
2022-10-11T13:59:22.463Z,17.47
2022-10-11T14:02:32.730Z,15.05
2022-10-11T14:05:34.380Z,20.55
2022-10-11T14:08:45.442Z,18.30
2022-10-11T14:11:48.054Z,18.73
2022-10-11T14:14:50.338Z,18.33
2022-10-11T14:17:52.141Z,17.52
2022-10-11T14:20:53.765Z,17.92
2022-10-11T14:24:00.739Z,13.20
2022-10-11T14:27:05.647Z,13.20
2022-10-11T14:30:30.425Z,25.65
2022-10-11T14:33:33.387Z,14.63
2022-10-11T14:36:35.165Z,28.55
2022-10-11T14:39:37.283Z,31.00
2022-10-11T14:42:38.890Z,42.35
2022-10-11T14:45:40.824Z,51.60
2022-10-11T14:48:55.116Z,38.28
2022-10-11T14:51:59.014Z,17.92
2022-10-11T14:55:00.577Z,17.67
2022-10-11T14:58:02.518Z,27.05
2022-10-11T15:01:04.153Z,15.18
2022-10-11T15:04:05.838Z,23.42
2022-10-11T15:07:07.984Z,18.65
2022-10-11T15:10:23.532Z,20.60
2022-10-11T15:13:25.534Z,21.25
2022-10-11T15:16:27.145Z,16.02
2022-10-11T15:19:28.698Z,21.75
2022-10-11T15:22:30.724Z,20.77
2022-10-11T15:25:32.573Z,16.12
2022-10-11T15:28:34.466Z,22.65
2022-10-11T15:31:36.111Z,20.25
2022-10-11T15:34:37.787Z,14.95
2022-10-11T15:37:40.018Z,21.35
2022-10-11T15:40:41.795Z,13.95
2022-10-11T15:43:45.027Z,12.10
2022-10-11T15:46:46.672Z,17.12
2022-10-11T15:49:48.257Z,16.40
2022-10-11T15:52:52.048Z,13.80
2022-10-11T15:55:55.366Z,19.62
2022-10-11T15:58:56.941Z,12.80
2022-10-11T16:01:58.559Z,16.42
2022-10-11T16:05:00.522Z,15.40
2022-10-11T16:08:02.124Z,20.95
2022-10-11T16:11:05.955Z,22.40
2022-10-11T16:14:07.564Z,22.02
2022-10-11T16:17:09.121Z,30.48
2022-10-11T16:20:10.742Z,16.30
2022-10-11T16:23:13.646Z,22.85
2022-10-11T16:26:16.802Z,27.13
2022-10-11T16:29:18.426Z,31.00
2022-10-11T16:32:20.431Z,25.60
2022-10-11T16:35:22.198Z,33.80
2022-10-11T16:38:24.030Z,32.63
2022-10-11T16:41:25.633Z,38.10
2022-10-11T16:44:28.288Z,39.50
2022-10-11T16:47:30.594Z,41.08
2022-10-11T16:50:36.850Z,54.25
2022-10-11T16:53:40.772Z,71.57
2022-10-11T16:56:42.593Z,113.82
2022-10-11T16:59:44.329Z,103.95
2022-10-11T17:02:46.186Z,98.00
2022-10-11T17:05:47.754Z,90.50
2022-10-11T17:08:49.407Z,112.95
2022-10-11T17:11:51.628Z,93.53
2022-10-11T17:14:53.325Z,80.00
2022-10-11T17:17:55.829Z,77.82
2022-10-11T17:21:06.460Z,73.10
2022-10-11T17:24:08.530Z,87.88
2022-10-11T17:27:10.476Z,108.80
2022-10-11T17:30:12.640Z,165.12
2022-10-11T17:33:14.222Z,199.62
2022-10-11T17:36:34.619Z,170.68
2022-10-11T17:39:36.810Z,166.73
2022-10-11T17:42:38.745Z,169.48
2022-10-11T17:45:40.588Z,162.55
2022-10-11T17:48:42.534Z,168.05
2022-10-11T17:51:44.880Z,136.50
2022-10-11T17:54:46.733Z,131.15
2022-10-11T17:57:48.671Z,120.68
2022-10-11T18:00:51.284Z,118.57
2022-10-11T18:04:01.439Z,123.85
2022-10-11T18:07:03.776Z,126.90
2022-10-11T18:10:06.398Z,106.07
2022-10-11T18:13:11.978Z,103.93
2022-10-11T18:16:20.287Z,103.97
2022-10-11T18:19:21.989Z,98.62
2022-10-11T18:22:23.989Z,112.53
2022-10-11T18:25:26.063Z,104.05
2022-10-11T18:28:28.900Z,96.00
2022-10-11T18:31:32.335Z,90.47
2022-10-11T18:34:34.302Z,90.60
2022-10-11T18:37:36.110Z,81.12
2022-10-11T18:40:46.149Z,83.45
2022-10-11T18:43:56.745Z,88.80
2022-10-11T18:46:59.589Z,91.10
2022-10-11T18:50:01.956Z,83.78
2022-10-11T18:56:10.857Z,87.72
2022-10-11T18:59:13.108Z,89.75
2022-10-11T19:02:15.380Z,90.32
2022-10-11T19:05:17.410Z,80.55
2022-10-11T19:08:19.512Z,85.82
2022-10-11T19:11:23.264Z,87.18
2022-10-11T19:14:29.057Z,95.10
2022-10-11T19:17:31.329Z,76.93
2022-10-11T19:20:36.080Z,71.50
2022-10-11T19:23:43.961Z,52.92
2022-10-11T19:26:46.797Z,43.60
2022-10-11T19:29:48.823Z,27.62
2022-10-11T19:32:51.281Z,28.92
2022-10-11T19:36:01.055Z,37.90
2022-10-11T19:39:04.332Z,28.12
2022-10-11T19:42:06.430Z,23.65
2022-10-11T19:45:09.561Z,26.40
2022-10-11T19:48:12.094Z,28.15
2022-10-11T19:51:20.009Z,22.75
2022-10-11T19:54:22.320Z,24.75
2022-10-11T19:57:24.731Z,22.52
2022-10-11T20:00:26.805Z,30.23
2022-10-11T20:03:28.949Z,29.73
2022-10-11T20:06:37.911Z,35.38
2022-10-11T20:09:40.355Z,30.05
2022-10-11T20:12:45.793Z,33.25
2022-10-11T20:15:47.632Z,27.20
2022-10-11T20:18:49.550Z,29.90
2022-10-11T20:21:52.678Z,28.00
2022-10-11T20:24:54.514Z,27.73
2022-10-11T20:27:56.528Z,37.38
2022-10-11T20:30:59.039Z,39.35
2022-10-11T20:34:05.094Z,42.95
2022-10-11T20:37:07.108Z,58.58
2022-10-11T20:40:10.058Z,44.58
2022-10-11T20:43:11.717Z,55.53
2022-10-11T20:46:15.924Z,67.00
2022-10-11T20:49:20.197Z,56.08
2022-10-11T20:52:22.206Z,53.80
2022-10-11T20:55:24.094Z,51.88
2022-10-11T20:58:25.799Z,55.03
2022-10-11T21:01:49.219Z,53.72
2022-10-11T21:04:51.488Z,55.47
2022-10-11T21:07:53.205Z,45.97
2022-10-11T21:10:55.554Z,49.10
2022-10-11T21:13:58.805Z,50.97
2022-10-11T21:17:00.355Z,49.90
2022-10-11T21:20:04.306Z,47.62
2022-10-11T21:23:06.036Z,39.10
2022-10-11T21:26:10.808Z,44.38
2022-10-11T21:29:12.589Z,39.83
2022-10-11T21:32:14.638Z,38.42
2022-10-11T21:35:17.152Z,41.28
2022-10-11T21:38:18.700Z,38.05
2022-10-11T21:41:31.367Z,35.42
2022-10-11T21:44:36.372Z,40.72
2022-10-11T21:47:39.083Z,43.42
2022-10-11T21:50:41.204Z,40.40
2022-10-11T21:53:42.768Z,38.28
2022-10-11T21:56:44.863Z,38.30
2022-10-11T21:59:46.408Z,43.90
2022-10-11T22:02:48.024Z,46.25
2022-10-11T22:05:49.897Z,41.78
2022-10-11T22:08:52.818Z,41.25
2022-10-11T22:11:54.445Z,40.50
2022-10-11T22:14:56.042Z,44.90
2022-10-11T22:17:57.864Z,37.90
2022-10-11T22:21:08.730Z,45.45
2022-10-11T22:24:10.332Z,43.13
2022-10-11T22:27:12.151Z,36.97
2022-10-11T22:30:13.716Z,37.50
2022-10-11T22:33:17.003Z,39.15
2022-10-11T22:36:19.441Z,44.55
2022-10-11T22:39:21.345Z,49.53
2022-10-11T22:42:26.852Z,63.20
2022-10-11T22:45:29.370Z,44.40
2022-10-11T22:48:31.439Z,44.58
2022-10-11T22:51:33.023Z,42.72
2022-10-11T22:54:35.051Z,42.83
2022-10-11T22:57:37.105Z,47.15
2022-10-11T23:00:39.707Z,40.72
2022-10-11T23:03:41.584Z,45.30
2022-10-11T23:06:44.421Z,37.17
2022-10-11T23:09:46.061Z,37.35
2022-10-11T23:12:47.660Z,38.92
2022-10-11T23:15:49.672Z,36.70
2022-10-11T23:18:55.248Z,39.25
2022-10-11T23:21:57.250Z,33.20
2022-10-11T23:24:58.874Z,37.83
2022-10-11T23:28:01.709Z,30.85
2022-10-11T23:31:08.749Z,30.50
2022-10-11T23:34:10.325Z,29.77
2022-10-11T23:37:12.148Z,36.83
2022-10-11T23:40:13.719Z,28.70
2022-10-11T23:43:15.650Z,28.62
2022-10-11T23:46:17.329Z,31.77
2022-10-11T23:49:19.149Z,34.17
2022-10-11T23:52:20.968Z,35.78
2022-10-11T23:55:23.077Z,40.05
2022-10-11T23:58:24.777Z,41.37
